Time;durP1;ratioP1;P1;durP2;ratioP2;P2;SDS_P1;SDS_P2;PMS_P1;PMS_P2;Temp;Humidity;BMP_temperature;BMP_pressure;BME280_temperature;BME280_humidity;BME280_pressure;Samples;Min_cycle;Max_cycle;Signal;HPM_P1;HPM_P2
2022/12/13 00:00:38;;;;;;;45.83;18.60;;;;;;;;;;5025183;28;20213;-70
2022/12/13 00:03:03;;;;;;;51.03;17.57;;;;;;;;;;5017154;28;20178;-70
2022/12/13 00:05:29;;;;;;;48.73;18.67;;;;;;;;;;5021656;28;20182;-70
2022/12/13 00:07:54;;;;;;;48.03;18.90;;;;;;;;;;5017350;28;20209;-70
2022/12/13 00:10:19;;;;;;;51.50;19.13;;;;;;;;;;5026596;28;20526;-70
2022/12/13 00:12:45;;;;;;;57.50;19.30;;;;;;;;;;5022656;28;20182;-70
2022/12/13 00:15:10;;;;;;;48.73;18.37;;;;;;;;;;5018590;28;20191;-70
2022/12/13 00:17:36;;;;;;;49.93;19.33;;;;;;;;;;5021744;28;20603;-70
2022/12/13 00:20:02;;;;;;;53.47;19.23;;;;;;;;;;5025762;28;20179;-70
2022/12/13 00:22:27;;;;;;;46.50;17.90;;;;;;;;;;5021572;28;20257;-70
2022/12/13 00:24:55;;;;;;;56.00;20.77;;;;;;;;;;5027756;28;20679;-70
2022/12/13 00:27:20;;;;;;;49.00;19.43;;;;;;;;;;5020813;28;20216;-70
2022/12/13 00:29:46;;;;;;;60.97;19.77;;;;;;;;;;5030514;28;20265;-70
2022/12/13 00:32:11;;;;;;;59.33;19.70;;;;;;;;;;5027230;28;20181;-70
2022/12/13 00:34:36;;;;;;;46.80;19.23;;;;;;;;;;5029782;28;20190;-70
2022/12/13 00:37:01;;;;;;;54.30;20.37;;;;;;;;;;5023975;28;20662;-70
2022/12/13 00:39:27;;;;;;;48.33;19.10;;;;;;;;;;5021207;28;20186;-70
2022/12/13 00:41:52;;;;;;;51.80;20.40;;;;;;;;;;5023858;28;20658;-71
2022/12/13 00:44:18;;;;;;;54.13;20.63;;;;;;;;;;5013379;28;20657;-70
2022/12/13 00:46:44;;;;;;;51.77;20.30;;;;;;;;;;5010526;28;20199;-70
2022/12/13 00:49:10;;;;;;;55.00;19.60;;;;;;;;;;5013250;28;20609;-71
2022/12/13 00:51:35;;;;;;;58.93;20.60;;;;;;;;;;5012882;28;20690;-70
2022/12/13 00:54:01;;;;;;;47.93;19.40;;;;;;;;;;5014810;28;20270;-70
2022/12/13 00:56:29;;;;;;;53.03;20.60;;;;;;;;;;5009267;28;20187;-70
2022/12/13 00:58:55;;;;;;;57.33;19.77;;;;;;;;;;5014668;28;20676;-70
2022/12/13 01:01:30;;;;;;;44.70;18.27;;;;;;;;;;5025483;28;20677;-71
2022/12/13 01:03:58;;;;;;;53.07;18.67;;;;;;;;;;5023294;28;20189;-71
2022/12/13 01:06:36;;;;;;;56.50;20.17;;;;;;;;;;5020058;28;20888;-71
2022/12/13 01:09:04;;;;;;;53.80;20.13;;;;;;;;;;5015832;28;20182;-71
2022/12/13 01:11:29;;;;;;;55.17;20.03;;;;;;;;;;5023123;28;20190;-70
2022/12/13 01:13:54;;;;;;;49.97;19.80;;;;;;;;;;5028931;28;20657;-70
2022/12/13 01:16:20;;;;;;;51.10;19.73;;;;;;;;;;5013765;28;20290;-71
2022/12/13 01:18:45;;;;;;;50.10;18.47;;;;;;;;;;5023621;28;20181;-70
2022/12/13 01:21:14;;;;;;;48.70;18.83;;;;;;;;;;5027257;28;20269;-70
2022/12/13 01:23:40;;;;;;;50.90;17.70;;;;;;;;;;5026108;28;20265;-71
2022/12/13 01:26:08;;;;;;;51.83;17.03;;;;;;;;;;5016900;28;20618;-70
2022/12/13 01:28:33;;;;;;;56.90;17.00;;;;;;;;;;5025814;28;20197;-70
2022/12/13 01:31:02;;;;;;;49.03;16.83;;;;;;;;;;5023524;28;20190;-70
2022/12/13 01:33:28;;;;;;;51.47;18.40;;;;;;;;;;5025444;28;20182;-70
2022/12/13 01:35:54;;;;;;;46.57;17.60;;;;;;;;;;5018888;28;20330;-70
2022/12/13 01:38:20;;;;;;;50.27;17.90;;;;;;;;;;5026314;28;20670;-70
2022/12/13 01:40:47;;;;;;;47.30;17.83;;;;;;;;;;5026895;28;20217;-70
2022/12/13 01:43:14;;;;;;;46.47;18.53;;;;;;;;;;5025955;28;20205;-70
2022/12/13 01:45:39;;;;;;;53.73;19.63;;;;;;;;;;5025445;28;20202;-70
2022/12/13 01:48:13;;;;;;;51.10;17.73;;;;;;;;;;5027151;28;20348;-70
2022/12/13 01:50:43;;;;;;;44.40;18.87;;;;;;;;;;5026716;28;20594;-70
2022/12/13 01:53:13;;;;;;;55.97;18.10;;;;;;;;;;5022914;28;20281;-71
2022/12/13 01:55:42;;;;;;;45.13;17.87;;;;;;;;;;5023257;28;20589;-70
2022/12/13 01:58:07;;;;;;;42.17;17.93;;;;;;;;;;5024394;28;20193;-71
2022/12/13 02:00:34;;;;;;;56.23;19.00;;;;;;;;;;5023283;28;20229;-71
2022/12/13 02:03:00;;;;;;;46.50;17.87;;;;;;;;;;5022215;28;20308;-70
2022/12/13 02:05:33;;;;;;;51.83;18.20;;;;;;;;;;5018695;28;20194;-70
2022/12/13 02:08:01;;;;;;;51.93;18.93;;;;;;;;;;5014852;28;20187;-69
2022/12/13 02:10:27;;;;;;;52.47;19.23;;;;;;;;;;5028383;28;20198;-69
2022/12/13 02:12:52;;;;;;;48.17;18.87;;;;;;;;;;5022299;28;20607;-69
2022/12/13 02:15:19;;;;;;;61.93;22.03;;;;;;;;;;5026247;28;20213;-70
2022/12/13 02:18:13;;;;;;;49.83;19.67;;;;;;;;;;5020350;28;20186;-70
2022/12/13 02:21:04;;;;;;;73.50;27.80;;;;;;;;;;5025223;28;20268;-70
2022/12/13 02:23:47;;;;;;;71.57;29.77;;;;;;;;;;5021454;28;20610;-70
2022/12/13 02:27:06;;;;;;;71.53;29.13;;;;;;;;;;5025726;28;20205;-69
2022/12/13 02:29:48;;;;;;;72.03;29.77;;;;;;;;;;4984238;28;20293;-70
2022/12/13 02:32:34;;;;;;;70.47;28.27;;;;;;;;;;4973256;28;20187;-70
2022/12/13 02:35:13;;;;;;;70.27;29.23;;;;;;;;;;5008902;28;20667;-70
2022/12/13 02:38:07;;;;;;;63.37;27.50;;;;;;;;;;5026661;28;20716;-69
2022/12/13 02:40:41;;;;;;;69.83;27.90;;;;;;;;;;5026181;28;20273;-69
2022/12/13 02:43:39;;;;;;;63.43;26.73;;;;;;;;;;5021965;28;20193;-70
2022/12/13 02:46:06;;;;;;;73.17;27.97;;;;;;;;;;5015840;28;20700;-69
2022/12/13 02:48:35;;;;;;;68.47;27.77;;;;;;;;;;5029202;28;20217;-70
2022/12/13 02:51:03;;;;;;;64.50;27.23;;;;;;;;;;5028775;28;20221;-70
2022/12/13 02:53:30;;;;;;;64.47;26.03;;;;;;;;;;5028934;28;20280;-70
2022/12/13 02:55:55;;;;;;;65.97;27.70;;;;;;;;;;5030017;28;20182;-70
2022/12/13 02:58:27;;;;;;;57.33;20.33;;;;;;;;;;5027620;28;20403;-70
2022/12/13 03:01:16;;;;;;;68.93;28.03;;;;;;;;;;5026526;28;20673;-70
2022/12/13 03:03:56;;;;;;;67.60;27.80;;;;;;;;;;5003495;28;20198;-70
2022/12/13 03:07:10;;;;;;;64.10;27.67;;;;;;;;;;5023694;28;20722;-70
2022/12/13 03:10:04;;;;;;;72.20;29.17;;;;;;;;;;5013212;28;20200;-70
2022/12/13 03:15:56;;;;;;;77.57;29.63;;;;;;;;;;5027613;28;20528;-70
2022/12/13 03:18:23;;;;;;;69.63;29.20;;;;;;;;;;5028532;28;20609;-71
2022/12/13 03:20:55;;;;;;;71.97;29.57;;;;;;;;;;5027504;28;20251;-69
2022/12/13 03:23:21;;;;;;;71.00;30.20;;;;;;;;;;5030324;28;20178;-69
2022/12/13 03:25:50;;;;;;;76.47;28.40;;;;;;;;;;5024259;28;20241;-71
2022/12/13 03:28:15;;;;;;;68.03;28.53;;;;;;;;;;5026316;28;20197;-69
2022/12/13 03:30:41;;;;;;;65.93;27.53;;;;;;;;;;5023584;28;20611;-70
2022/12/13 03:33:06;;;;;;;72.70;29.43;;;;;;;;;;5020228;28;20858;-69
2022/12/13 03:35:32;;;;;;;65.20;27.80;;;;;;;;;;5027595;28;20229;-71
2022/12/13 03:38:00;;;;;;;70.90;28.10;;;;;;;;;;5025405;28;20197;-71
2022/12/13 03:40:26;;;;;;;66.73;27.83;;;;;;;;;;5025789;28;20263;-71
2022/12/13 03:42:52;;;;;;;66.77;27.07;;;;;;;;;;5019712;28;20281;-71
2022/12/13 03:45:17;;;;;;;69.90;26.30;;;;;;;;;;5028320;28;20221;-70
2022/12/13 03:47:43;;;;;;;61.07;26.00;;;;;;;;;;5026265;28;20540;-70
2022/12/13 03:50:08;;;;;;;67.50;27.30;;;;;;;;;;5029603;28;20590;-70
2022/12/13 03:52:34;;;;;;;70.30;27.23;;;;;;;;;;5029339;28;20193;-71
2022/12/13 03:54:59;;;;;;;69.17;27.77;;;;;;;;;;5028065;28;20198;-69
2022/12/13 03:57:24;;;;;;;66.20;26.73;;;;;;;;;;5023088;28;20604;-70
2022/12/13 03:59:50;;;;;;;60.30;25.83;;;;;;;;;;5026237;28;20577;-70
2022/12/13 04:02:15;;;;;;;61.53;26.17;;;;;;;;;;5027825;28;20182;-70
2022/12/13 04:04:40;;;;;;;55.27;24.30;;;;;;;;;;5023691;28;20198;-70
2022/12/13 04:07:06;;;;;;;66.20;26.57;;;;;;;;;;5027844;28;20229;-70
2022/12/13 04:09:31;;;;;;;69.37;28.13;;;;;;;;;;5027627;28;20730;-70
2022/12/13 04:14:40;;;;;;;66.60;26.93;;;;;;;;;;5024048;28;20193;-70
2022/12/13 04:17:06;;;;;;;61.57;25.27;;;;;;;;;;5028422;28;20268;-70
2022/12/13 04:19:31;;;;;;;73.47;28.40;;;;;;;;;;5022962;28;20270;-70
2022/12/13 04:21:56;;;;;;;68.80;28.07;;;;;;;;;;5027102;28;20225;-70
2022/12/13 04:24:22;;;;;;;70.97;28.07;;;;;;;;;;5025828;28;20486;-70
2022/12/13 04:26:47;;;;;;;65.93;28.03;;;;;;;;;;5019176;28;20268;-70
2022/12/13 04:29:13;;;;;;;69.77;28.07;;;;;;;;;;5026098;28;20355;-70
2022/12/13 04:31:38;;;;;;;72.37;29.10;;;;;;;;;;5026341;28;20387;-70
2022/12/13 04:34:03;;;;;;;70.50;27.70;;;;;;;;;;5024235;28;20220;-70
2022/12/13 04:36:29;;;;;;;75.00;29.27;;;;;;;;;;5026535;28;20230;-69
2022/12/13 04:38:55;;;;;;;67.53;29.23;;;;;;;;;;5026608;28;20634;-71
2022/12/13 04:41:20;;;;;;;62.87;27.37;;;;;;;;;;5023425;28;20234;-69
2022/12/13 04:43:53;;;;;;;70.63;28.70;;;;;;;;;;5027479;28;20190;-71
2022/12/13 04:46:19;;;;;;;66.43;28.07;;;;;;;;;;5025469;28;20221;-70
2022/12/13 04:48:45;;;;;;;73.83;28.33;;;;;;;;;;5024929;28;20207;-71
2022/12/13 04:51:10;;;;;;;70.53;28.97;;;;;;;;;;5027521;28;20187;-69
2022/12/13 04:53:36;;;;;;;72.13;29.60;;;;;;;;;;5020889;28;20194;-70
2022/12/13 04:56:03;;;;;;;64.67;27.73;;;;;;;;;;5026199;28;20190;-70
2022/12/13 04:58:28;;;;;;;71.40;28.47;;;;;;;;;;5021403;28;20210;-71
2022/12/13 05:00:54;;;;;;;75.07;29.43;;;;;;;;;;5025171;28;20244;-70
2022/12/13 05:03:19;;;;;;;65.07;28.27;;;;;;;;;;5027298;28;20617;-70
2022/12/13 05:05:44;;;;;;;63.20;27.50;;;;;;;;;;5018126;28;20215;-70
2022/12/13 05:08:10;;;;;;;69.13;27.23;;;;;;;;;;5024180;28;20198;-70
2022/12/13 05:10:36;;;;;;;62.77;28.20;;;;;;;;;;5024189;28;20186;-70
2022/12/13 05:13:02;;;;;;;65.43;27.37;;;;;;;;;;5021143;28;20261;-70
2022/12/13 05:15:29;;;;;;;67.97;27.97;;;;;;;;;;5024615;28;20270;-72
2022/12/13 05:17:58;;;;;;;66.30;27.50;;;;;;;;;;5026880;28;20285;-69
2022/12/13 05:20:23;;;;;;;63.33;28.33;;;;;;;;;;5030025;28;20251;-69
2022/12/13 05:22:49;;;;;;;68.87;28.97;;;;;;;;;;5029984;28;20223;-70
2022/12/13 05:25:14;;;;;;;71.27;30.27;;;;;;;;;;5020454;28;20196;-71
2022/12/13 05:27:39;;;;;;;70.40;29.03;;;;;;;;;;5020094;28;20203;-70
2022/12/13 05:30:05;;;;;;;72.87;28.33;;;;;;;;;;5021109;28;20653;-69
2022/12/13 05:32:38;;;;;;;70.17;28.20;;;;;;;;;;5023505;28;20746;-71
2022/12/13 05:35:03;;;;;;;73.90;28.43;;;;;;;;;;5025543;28;20197;-69
2022/12/13 05:37:29;;;;;;;69.37;29.17;;;;;;;;;;5022807;28;20245;-71
2022/12/13 05:39:54;;;;;;;67.73;27.73;;;;;;;;;;5022796;28;20575;-71
2022/12/13 05:42:19;;;;;;;63.97;27.67;;;;;;;;;;5024138;28;20540;-69
2022/12/13 05:44:45;;;;;;;70.10;28.37;;;;;;;;;;5026971;28;20238;-70
2022/12/13 05:47:11;;;;;;;70.07;28.43;;;;;;;;;;5022288;28;20647;-69
2022/12/13 05:49:36;;;;;;;77.17;29.63;;;;;;;;;;5025703;28;20182;-71
2022/12/13 05:52:02;;;;;;;73.03;29.63;;;;;;;;;;5031906;28;20500;-70
2022/12/13 05:54:27;;;;;;;70.63;30.10;;;;;;;;;;5029994;28;20179;-70
2022/12/13 05:56:53;;;;;;;75.73;28.97;;;;;;;;;;5021810;28;20182;-69
2022/12/13 05:59:18;;;;;;;67.27;28.03;;;;;;;;;;5021283;28;20198;-70
2022/12/13 06:01:44;;;;;;;71.70;29.30;;;;;;;;;;5028748;28;20265;-70
2022/12/13 06:04:10;;;;;;;71.17;29.03;;;;;;;;;;5029138;28;20211;-70
2022/12/13 06:06:36;;;;;;;69.17;28.20;;;;;;;;;;5025110;28;20751;-70
2022/12/13 06:09:02;;;;;;;73.20;29.33;;;;;;;;;;5024184;28;20182;-71
2022/12/13 06:11:28;;;;;;;69.43;28.97;;;;;;;;;;5022447;28;20182;-71
2022/12/13 06:13:53;;;;;;;60.70;25.57;;;;;;;;;;5024967;28;20178;-71
2022/12/13 06:16:18;;;;;;;73.90;29.60;;;;;;;;;;5017041;28;20189;-71
2022/12/13 06:18:44;;;;;;;72.30;27.90;;;;;;;;;;5016139;28;20334;-71
2022/12/13 06:21:09;;;;;;;72.87;29.47;;;;;;;;;;5024209;28;20194;-71
2022/12/13 06:23:34;;;;;;;74.80;29.90;;;;;;;;;;5021904;28;20454;-71
2022/12/13 06:26:05;;;;;;;70.20;29.43;;;;;;;;;;5026498;28;20194;-70
2022/12/13 06:28:31;;;;;;;72.60;29.63;;;;;;;;;;5015304;28;20183;-71
2022/12/13 06:30:59;;;;;;;67.67;29.00;;;;;;;;;;5030718;28;20263;-71
2022/12/13 06:33:24;;;;;;;73.13;28.50;;;;;;;;;;5024834;28;20217;-71
2022/12/13 06:35:51;;;;;;;66.80;29.13;;;;;;;;;;5029438;28;20644;-71
2022/12/13 06:38:16;;;;;;;79.47;30.13;;;;;;;;;;5025260;28;20185;-71
2022/12/13 06:40:42;;;;;;;65.40;27.60;;;;;;;;;;5018321;28;20262;-71
2022/12/13 06:43:07;;;;;;;79.77;29.97;;;;;;;;;;5020480;28;20215;-71
2022/12/13 06:45:32;;;;;;;65.63;28.27;;;;;;;;;;5014786;28;20186;-71
2022/12/13 06:47:58;;;;;;;66.00;27.30;;;;;;;;;;5026070;28;20249;-70
2022/12/13 06:50:23;;;;;;;73.87;29.20;;;;;;;;;;5013383;28;20234;-70
2022/12/13 06:52:49;;;;;;;67.03;27.53;;;;;;;;;;5015176;28;20273;-70
2022/12/13 06:55:14;;;;;;;68.30;29.40;;;;;;;;;;5016945;28;20186;-70
2022/12/13 06:57:40;;;;;;;66.83;28.23;;;;;;;;;;5022839;28;20256;-70
2022/12/13 07:00:06;;;;;;;73.33;28.90;;;;;;;;;;5020725;28;20226;-71
2022/12/13 07:02:31;;;;;;;77.93;30.50;;;;;;;;;;5019445;28;20174;-71
2022/12/13 07:04:57;;;;;;;71.77;28.20;;;;;;;;;;5026641;28;20679;-71
2022/12/13 07:07:23;;;;;;;76.23;29.03;;;;;;;;;;5020960;28;20203;-70
2022/12/13 07:09:49;;;;;;;68.17;28.33;;;;;;;;;;5023821;28;20733;-70
2022/12/13 07:12:14;;;;;;;70.40;27.70;;;;;;;;;;5019665;28;20213;-71
2022/12/13 07:14:55;;;;;;;67.47;28.75;;;;;;;;;;4861347;28;10000991;-71
2022/12/13 07:17:20;;;;;;;74.70;30.13;;;;;;;;;;5012457;28;20417;-70
2022/12/13 07:19:46;;;;;;;67.47;29.10;;;;;;;;;;5010637;28;20186;-70
2022/12/13 07:22:11;;;;;;;74.93;28.97;;;;;;;;;;5022761;28;20259;-70
2022/12/13 07:24:36;;;;;;;77.30;30.33;;;;;;;;;;5016212;28;20231;-70
2022/12/13 07:27:03;;;;;;;72.60;28.00;;;;;;;;;;5013554;28;20293;-69
2022/12/13 07:29:28;;;;;;;64.27;28.07;;;;;;;;;;5020374;28;20185;-69
2022/12/13 07:31:53;;;;;;;73.20;28.50;;;;;;;;;;5017847;28;20604;-70
2022/12/13 07:34:19;;;;;;;72.40;29.53;;;;;;;;;;5010131;28;20182;-70
2022/12/13 07:36:44;;;;;;;71.87;28.57;;;;;;;;;;5019158;28;20222;-70
2022/12/13 07:39:10;;;;;;;79.60;29.40;;;;;;;;;;5015606;28;20276;-71
2022/12/13 07:41:35;;;;;;;56.97;21.27;;;;;;;;;;5012238;28;20237;-71
2022/12/13 07:44:00;;;;;;;57.43;20.13;;;;;;;;;;5012693;28;20175;-70
2022/12/13 07:46:26;;;;;;;57.73;20.63;;;;;;;;;;5013973;28;20205;-70
2022/12/13 07:48:51;;;;;;;75.13;27.33;;;;;;;;;;5017217;28;20552;-71
2022/12/13 07:51:16;;;;;;;65.50;26.53;;;;;;;;;;5024874;28;20557;-70
2022/12/13 07:53:42;;;;;;;53.90;19.03;;;;;;;;;;5034847;28;20185;-69
2022/12/13 07:56:10;;;;;;;57.40;20.47;;;;;;;;;;5026501;28;20638;-70
2022/12/13 07:58:36;;;;;;;60.10;20.33;;;;;;;;;;5010175;28;20585;-70
2022/12/13 08:01:04;;;;;;;62.50;20.17;;;;;;;;;;5012105;28;20211;-70
2022/12/13 08:03:29;;;;;;;65.63;21.17;;;;;;;;;;5010422;28;20191;-70
2022/12/13 08:06:13;;;;;;;60.67;20.93;;;;;;;;;;5017232;28;20224;-69
2022/12/13 08:08:39;;;;;;;53.57;19.53;;;;;;;;;;5024016;28;20710;-72
2022/12/13 08:11:07;;;;;;;51.60;19.17;;;;;;;;;;5017946;28;20279;-71
2022/12/13 08:13:33;;;;;;;55.43;19.30;;;;;;;;;;5017140;28;20233;-70
2022/12/13 08:16:00;;;;;;;58.73;20.37;;;;;;;;;;5020169;28;20233;-70
2022/12/13 08:18:26;;;;;;;59.27;20.30;;;;;;;;;;5010825;28;20539;-71
2022/12/13 08:20:56;;;;;;;54.00;18.93;;;;;;;;;;5020071;28;20572;-70
2022/12/13 08:23:21;;;;;;;52.13;19.67;;;;;;;;;;5009895;28;20253;-71
2022/12/13 08:25:51;;;;;;;46.80;18.97;;;;;;;;;;5015065;28;20843;-70
2022/12/13 08:28:17;;;;;;;58.37;20.90;;;;;;;;;;5019578;28;20272;-70
2022/12/13 08:30:42;;;;;;;60.30;19.40;;;;;;;;;;5026781;28;20271;-70
2022/12/13 08:33:07;;;;;;;51.97;19.37;;;;;;;;;;5025593;28;20193;-69
2022/12/13 08:35:33;;;;;;;48.30;18.67;;;;;;;;;;5014866;28;20382;-70
2022/12/13 08:37:58;;;;;;;57.93;19.57;;;;;;;;;;5028587;28;20286;-69
2022/12/13 08:40:23;;;;;;;51.57;19.77;;;;;;;;;;5022091;28;20669;-70
2022/12/13 08:42:49;;;;;;;48.43;18.33;;;;;;;;;;5025676;28;20700;-70
2022/12/13 08:45:14;;;;;;;53.03;20.50;;;;;;;;;;5015901;28;20186;-70
2022/12/13 08:47:40;;;;;;;53.03;18.70;;;;;;;;;;5020920;28;20620;-70
2022/12/13 08:50:05;;;;;;;50.87;18.30;;;;;;;;;;5013884;28;20186;-70
2022/12/13 08:52:32;;;;;;;52.37;19.37;;;;;;;;;;5017414;28;20266;-69
2022/12/13 08:54:58;;;;;;;49.07;18.07;;;;;;;;;;5028410;28;20208;-69
2022/12/13 08:57:23;;;;;;;58.43;19.50;;;;;;;;;;5014850;28;20202;-70
2022/12/13 08:59:48;;;;;;;50.60;19.10;;;;;;;;;;5014621;28;20259;-69
2022/12/13 09:02:14;;;;;;;53.33;17.87;;;;;;;;;;5020008;28;20174;-72
2022/12/13 09:04:40;;;;;;;56.03;20.27;;;;;;;;;;5027271;28;20630;-69
2022/12/13 09:07:06;;;;;;;44.60;17.33;;;;;;;;;;5028992;28;20213;-70
2022/12/13 09:09:32;;;;;;;54.50;19.40;;;;;;;;;;5009870;28;20179;-70
2022/12/13 09:11:57;;;;;;;54.93;20.00;;;;;;;;;;5020219;28;20272;-70
2022/12/13 09:14:22;;;;;;;58.50;20.23;;;;;;;;;;5023821;28;20186;-71
2022/12/13 09:16:48;;;;;;;59.50;22.33;;;;;;;;;;5018366;28;20534;-70
2022/12/13 09:19:14;;;;;;;57.20;22.63;;;;;;;;;;5015115;28;20175;-70
2022/12/13 09:21:39;;;;;;;57.63;21.77;;;;;;;;;;5028256;28;20190;-70
2022/12/13 09:24:04;;;;;;;56.80;21.37;;;;;;;;;;5021488;28;20228;-70
2022/12/13 09:26:30;;;;;;;57.60;21.20;;;;;;;;;;5017261;28;20245;-70
2022/12/13 09:28:55;;;;;;;63.60;23.53;;;;;;;;;;5020589;28;20275;-69
2022/12/13 09:31:21;;;;;;;54.53;21.83;;;;;;;;;;5029337;28;20244;-70
2022/12/13 09:33:47;;;;;;;60.87;21.53;;;;;;;;;;5027318;28;20190;-70
2022/12/13 09:36:15;;;;;;;62.37;23.47;;;;;;;;;;5029027;28;20234;-70
2022/12/13 09:38:41;;;;;;;70.37;23.87;;;;;;;;;;5028200;28;20182;-70
2022/12/13 09:41:20;;;;;;;66.37;23.63;;;;;;;;;;5015424;28;20247;-70
2022/12/13 09:43:49;;;;;;;69.90;24.97;;;;;;;;;;5028622;28;20182;-70
2022/12/13 09:46:30;;;;;;;69.60;25.93;;;;;;;;;;5018725;28;20283;-69
2022/12/13 09:48:57;;;;;;;69.47;24.63;;;;;;;;;;5028490;28;20190;-70
2022/12/13 09:51:24;;;;;;;69.67;26.27;;;;;;;;;;5009344;28;20186;-69
2022/12/13 09:53:51;;;;;;;65.47;25.90;;;;;;;;;;5024429;28;20243;-69
2022/12/13 09:56:19;;;;;;;71.50;26.07;;;;;;;;;;5022995;28;20175;-70
2022/12/13 09:58:47;;;;;;;66.03;28.43;;;;;;;;;;5025678;28;20190;-69
2022/12/13 10:01:13;;;;;;;64.77;27.63;;;;;;;;;;5025150;28;20201;-69
2022/12/13 10:03:43;;;;;;;70.33;28.77;;;;;;;;;;5033142;28;20196;-69
2022/12/13 10:06:18;;;;;;;70.60;28.50;;;;;;;;;;5031237;28;20205;-69
2022/12/13 10:08:47;;;;;;;69.93;28.87;;;;;;;;;;5032918;28;20280;-69
2022/12/13 10:11:15;;;;;;;74.07;30.53;;;;;;;;;;5026159;28;20276;-69
2022/12/13 10:14:04;;;;;;;75.00;29.70;;;;;;;;;;5016759;28;20260;-69
2022/12/13 10:16:42;;;;;;;77.70;29.90;;;;;;;;;;5024344;28;20282;-69
2022/12/13 10:19:17;;;;;;;67.17;29.53;;;;;;;;;;5032217;28;20232;-69
2022/12/13 10:21:44;;;;;;;77.53;31.13;;;;;;;;;;5016867;28;20540;-69
2022/12/13 10:24:26;;;;;;;77.10;32.57;;;;;;;;;;5017380;28;20274;-69
2022/12/13 10:26:52;;;;;;;79.43;32.37;;;;;;;;;;5013396;28;20209;-69
2022/12/13 10:29:18;;;;;;;79.87;32.63;;;;;;;;;;5026583;28;20562;-69
2022/12/13 10:31:46;;;;;;;82.57;33.53;;;;;;;;;;5023952;28;20689;-69
2022/12/13 10:34:36;;;;;;;86.23;34.67;;;;;;;;;;5031953;28;20528;-69
2022/12/13 10:37:39;;;;;;;82.53;33.23;;;;;;;;;;5031719;28;20222;-69
2022/12/13 10:40:05;;;;;;;77.23;29.80;;;;;;;;;;4970910;28;20612;-69
2022/12/13 10:42:30;;;;;;;77.87;32.57;;;;;;;;;;4996296;28;20294;-69
2022/12/13 10:45:15;;;;;;;75.73;34.03;;;;;;;;;;5000209;28;20483;-69
2022/12/13 10:47:43;;;;;;;83.00;33.40;;;;;;;;;;5015093;28;20564;-68
2022/12/13 10:50:27;;;;;;;75.87;32.73;;;;;;;;;;5023028;28;20423;-68
2022/12/13 10:52:53;;;;;;;76.93;33.10;;;;;;;;;;5025173;28;20548;-69
2022/12/13 10:55:33;;;;;;;76.77;32.80;;;;;;;;;;5020558;28;20193;-68
2022/12/13 10:58:08;;;;;;;75.20;32.47;;;;;;;;;;5030057;28;20549;-67
2022/12/13 11:00:46;;;;;;;74.50;31.87;;;;;;;;;;5023631;28;20280;-67
2022/12/13 11:03:32;;;;;;;72.17;31.50;;;;;;;;;;5032081;28;20186;-67
2022/12/13 11:06:11;;;;;;;68.67;31.97;;;;;;;;;;5030699;28;20512;-67
2022/12/13 11:08:37;;;;;;;66.07;31.67;;;;;;;;;;5022399;28;20178;-67
2022/12/13 11:11:05;;;;;;;66.97;31.30;;;;;;;;;;5015173;28;20227;-68
2022/12/13 11:13:39;;;;;;;71.90;30.97;;;;;;;;;;5018220;28;20273;-67
2022/12/13 11:16:27;;;;;;;62.03;29.57;;;;;;;;;;5020282;28;20181;-67
2022/12/13 11:18:56;;;;;;;67.27;31.13;;;;;;;;;;5011388;28;20194;-67
2022/12/13 11:21:35;;;;;;;68.17;29.80;;;;;;;;;;5019405;28;20286;-68
2022/12/13 11:24:04;;;;;;;65.43;28.97;;;;;;;;;;5020124;28;20705;-68
2022/12/13 11:26:32;;;;;;;66.47;30.00;;;;;;;;;;5008964;28;20264;-67
2022/12/13 11:29:39;;;;;;;60.17;29.17;;;;;;;;;;5020249;28;20270;-67
2022/12/13 11:32:14;;;;;;;65.43;28.33;;;;;;;;;;5008095;28;20200;-67
2022/12/13 11:35:06;;;;;;;55.03;26.67;;;;;;;;;;5023269;28;20650;-67
2022/12/13 11:37:47;;;;;;;54.37;25.50;;;;;;;;;;5013378;28;20226;-67
2022/12/13 11:40:24;;;;;;;57.00;25.20;;;;;;;;;;5020159;28;20210;-67
2022/12/13 11:42:56;;;;;;;51.90;24.80;;;;;;;;;;5013780;28;20182;-67
2022/12/13 11:45:38;;;;;;;57.57;24.90;;;;;;;;;;5023599;28;20272;-66
2022/12/13 11:48:16;;;;;;;48.57;23.80;;;;;;;;;;5029631;28;20202;-67
2022/12/13 11:50:45;;;;;;;49.27;24.17;;;;;;;;;;5017882;28;20186;-67
2022/12/13 11:53:28;;;;;;;50.37;22.73;;;;;;;;;;5030173;28;20269;-67
2022/12/13 11:56:06;;;;;;;47.77;22.60;;;;;;;;;;5016015;28;20247;-67
2022/12/13 11:58:47;;;;;;;46.43;22.57;;;;;;;;;;5030201;28;20181;-67
2022/12/13 12:01:20;;;;;;;50.83;24.50;;;;;;;;;;5017991;28;20214;-67
2022/12/13 12:04:05;;;;;;;48.03;22.40;;;;;;;;;;5024688;28;20193;-67
2022/12/13 12:06:50;;;;;;;44.87;20.80;;;;;;;;;;5020161;28;20260;-67
2022/12/13 12:09:18;;;;;;;42.50;21.13;;;;;;;;;;5025617;28;20775;-68
2022/12/13 12:11:56;;;;;;;41.07;20.77;;;;;;;;;;5021919;28;20274;-67
2022/12/13 12:14:42;;;;;;;46.37;21.90;;;;;;;;;;5025218;28;20210;-67
2022/12/13 12:17:13;;;;;;;38.60;20.43;;;;;;;;;;5022843;28;20190;-67
2022/12/13 12:19:41;;;;;;;43.53;21.00;;;;;;;;;;5020990;28;20215;-68
2022/12/13 12:22:27;;;;;;;41.07;19.80;;;;;;;;;;5024674;28;20190;-67
2022/12/13 12:25:16;;;;;;;39.30;20.17;;;;;;;;;;5025838;28;20308;-67
2022/12/13 12:28:13;;;;;;;43.90;20.37;;;;;;;;;;5023372;28;20214;-67
2022/12/13 12:30:56;;;;;;;34.10;18.23;;;;;;;;;;5018683;28;20208;-67
2022/12/13 12:33:34;;;;;;;43.80;20.27;;;;;;;;;;5026182;28;20240;-67
2022/12/13 12:36:18;;;;;;;38.50;18.60;;;;;;;;;;5012077;28;20234;-67
2022/12/13 12:39:01;;;;;;;39.00;18.37;;;;;;;;;;5026557;28;20690;-67
2022/12/13 12:42:09;;;;;;;39.27;19.03;;;;;;;;;;5025127;28;20201;-68
2022/12/13 12:44:49;;;;;;;51.70;22.13;;;;;;;;;;5023903;28;20186;-68
2022/12/13 12:47:27;;;;;;;56.77;23.83;;;;;;;;;;5018910;28;20212;-68
2022/12/13 12:50:11;;;;;;;41.60;21.30;;;;;;;;;;5027813;28;20293;-69
2022/12/13 12:53:01;;;;;;;40.00;19.43;;;;;;;;;;5013761;28;20194;-68
2022/12/13 12:55:45;;;;;;;46.20;19.90;;;;;;;;;;5029098;28;20233;-68
2022/12/13 12:58:22;;;;;;;45.23;23.07;;;;;;;;;;5029425;28;20589;-67
2022/12/13 13:01:12;;;;;;;47.00;23.20;;;;;;;;;;5019482;28;20274;-68
2022/12/13 13:03:40;;;;;;;42.87;21.03;;;;;;;;;;5017542;28;20479;-68
2022/12/13 13:06:35;;;;;;;38.00;18.67;;;;;;;;;;5026599;28;20221;-67
2022/12/13 13:09:02;;;;;;;35.10;18.27;;;;;;;;;;5021882;28;20525;-67
2022/12/13 13:11:29;;;;;;;34.73;18.03;;;;;;;;;;5019373;28;20190;-68
2022/12/13 13:13:58;;;;;;;40.90;19.63;;;;;;;;;;5020440;28;20275;-68
2022/12/13 13:16:26;;;;;;;38.60;19.63;;;;;;;;;;5018094;28;20544;-68
2022/12/13 13:18:54;;;;;;;38.63;19.23;;;;;;;;;;5024882;28;20178;-67
2022/12/13 13:21:22;;;;;;;35.67;20.17;;;;;;;;;;5024754;28;20174;-67
2022/12/13 13:24:18;;;;;;;37.60;19.60;;;;;;;;;;5029021;28;20186;-67
2022/12/13 13:26:48;;;;;;;33.97;18.03;;;;;;;;;;5027333;28;20202;-67
2022/12/13 13:29:20;;;;;;;35.00;18.13;;;;;;;;;;5023705;28;20225;-67
2022/12/13 13:32:12;;;;;;;36.70;19.23;;;;;;;;;;5025720;28;20194;-67
2022/12/13 13:34:45;;;;;;;36.30;19.20;;;;;;;;;;5018849;28;20205;-67
2022/12/13 13:37:20;;;;;;;39.90;22.30;;;;;;;;;;5038962;28;20631;-69
2022/12/13 13:40:21;;;;;;;40.63;21.60;;;;;;;;;;5019462;28;20367;-68
2022/12/13 13:43:15;;;;;;;39.90;20.87;;;;;;;;;;5026466;28;20309;-68
2022/12/13 13:45:50;;;;;;;39.77;20.43;;;;;;;;;;5037941;28;20213;-68
2022/12/13 13:48:40;;;;;;;40.33;20.30;;;;;;;;;;5020824;28;20218;-67
2022/12/13 13:51:24;;;;;;;39.70;20.53;;;;;;;;;;5020166;28;20186;-68
2022/12/13 13:54:15;;;;;;;39.63;20.40;;;;;;;;;;5018470;28;20208;-67
2022/12/13 13:56:58;;;;;;;35.20;18.37;;;;;;;;;;5027978;28;20641;-67
2022/12/13 13:59:42;;;;;;;41.20;19.57;;;;;;;;;;5020238;28;20224;-67
2022/12/13 14:02:40;;;;;;;42.13;20.17;;;;;;;;;;5025544;28;20576;-67
2022/12/13 14:05:33;;;;;;;39.00;19.77;;;;;;;;;;5034286;28;20185;-68
2022/12/13 14:08:29;;;;;;;36.83;19.47;;;;;;;;;;5030504;28;20193;-68
2022/12/13 14:11:30;;;;;;;38.73;20.47;;;;;;;;;;5024132;28;20639;-68
2022/12/13 14:14:32;;;;;;;41.07;21.73;;;;;;;;;;5018378;28;20193;-68
2022/12/13 14:17:17;;;;;;;36.63;19.40;;;;;;;;;;5020658;28;20185;-68
2022/12/13 14:20:10;;;;;;;41.37;20.37;;;;;;;;;;5009067;28;20634;-67
2022/12/13 14:22:59;;;;;;;40.37;20.33;;;;;;;;;;5018955;28;20179;-68
2022/12/13 14:25:43;;;;;;;43.90;22.17;;;;;;;;;;5010150;28;20278;-68
2022/12/13 14:28:25;;;;;;;43.03;21.73;;;;;;;;;;5016784;28;20685;-68
2022/12/13 14:30:51;;;;;;;41.60;20.70;;;;;;;;;;5012364;28;20183;-68
2022/12/13 14:33:22;;;;;;;41.27;20.73;;;;;;;;;;5029271;28;20177;-68
2022/12/13 14:36:00;;;;;;;46.23;21.80;;;;;;;;;;5010411;28;22802;-68
2022/12/13 14:38:29;;;;;;;41.87;20.83;;;;;;;;;;5013451;28;20273;-69
2022/12/13 14:40:57;;;;;;;43.67;21.60;;;;;;;;;;5025919;28;20198;-68
2022/12/13 14:43:26;;;;;;;46.50;22.73;;;;;;;;;;5019732;28;20248;-68
2022/12/13 14:46:01;;;;;;;44.83;22.10;;;;;;;;;;5019010;28;20646;-67